Weather at Elisuperficie la Quercia

Public forecast

Using degrees Celsius for public forecast. Weather courtesy of forecast.io.

Closest aviation weather report (METAR) to Elisuperficie la Quercia

Closest report is Bari Karol Wojtyła Airport, 12.0 nm (22.3 km) NNE.

2024/05/21 12:20 (retrieved 37 minutes ago)

LIBD 211220Z VRB05KT CAVOK 28/15 Q1008 WS R07

Closest aviation forecast (TAF) to Elisuperficie la Quercia

Closest forecast is Bari Karol Wojtyła Airport, 12.0 nm (22.3 km) NNE.

2024/05/21 12:00 (retrieved 57 minutes ago)

TAF LIBD 211100Z 2112/2212 27016KT CAVOK BECMG 2207/2209 34014KT TAF LIBP 211100Z 2112/2212 06012KT 9999 SCT020 TEMPO 2112/2118 TSRA BECMG 2118/2120 21012KT TEMPO 2121/2205 21015G25KT BECMG 2210/2212 06012KT